< < Back
Terminal Aerodrome Forecast


Current Version              Previous Versions:   1  2  3  4  5  6  7  8  9  

Terminal Aerodrome Forecast

447
FTUS44 KMOB 260100 AAB
TAFMOB
TAF AMD
KMOB 260151Z 2602/2624 09008KT P6SM VCTS SCT040CB OVC070
     FM260300 23005KT P6SM BKN100
     FM261800 23007KT P6SM VCTS SCT040CB=

Latest METAR

620
SAUS80 KWBC 261900
MTRMOB
METAR KMOB 261856Z 29005KT 10SM FEW032 SCT043 SCT075 32/24 A3006 RMK AO2
SLP174 TCU DSNT ALQDS T03170239


USA.gov is the U.S. government's official web portal to all federal, state and local government web resources and services.